createdAt,value
2022-09-24T00:01:15.959Z,5.75
2022-09-24T00:03:45.273Z,5.65
2022-09-24T00:06:15.127Z,6.00
2022-09-24T00:08:41.885Z,5.78
2022-09-24T00:11:11.950Z,5.60
2022-09-24T00:13:39.183Z,6.18
2022-09-24T00:16:07.722Z,5.78
2022-09-24T00:18:34.489Z,5.47
2022-09-24T00:21:00.749Z,5.38
2022-09-24T00:23:27.305Z,5.68
2022-09-24T00:26:12.134Z,5.97
2022-09-24T00:28:38.352Z,6.30
2022-09-24T00:31:07.058Z,6.95
2022-09-24T00:33:34.333Z,7.40
2022-09-24T00:36:05.306Z,7.70
2022-09-24T00:38:32.208Z,6.97
2022-09-24T00:40:59.192Z,6.80
2022-09-24T00:43:29.702Z,7.15
2022-09-24T00:46:01.896Z,7.35
2022-09-24T00:48:28.110Z,6.90
2022-09-24T00:50:54.578Z,6.95
2022-09-24T00:53:22.578Z,7.35
2022-09-24T00:55:51.795Z,6.85
2022-09-24T00:58:18.332Z,7.30
2022-09-24T01:00:45.322Z,7.60
2022-09-24T01:03:14.138Z,8.40
2022-09-24T01:05:40.365Z,7.53
2022-09-24T01:08:07.166Z,6.90
2022-09-24T01:10:57.680Z,7.18
2022-09-24T01:13:24.101Z,7.38
2022-09-24T01:15:58.724Z,6.75
2022-09-24T01:18:35.506Z,7.00
2022-09-24T01:21:09.405Z,7.95
2022-09-24T01:23:49.044Z,6.85
2022-09-24T01:26:34.161Z,7.72
2022-09-24T01:29:05.602Z,7.63
2022-09-24T01:31:37.712Z,7.78
2022-09-24T01:34:09.034Z,7.43
2022-09-24T01:36:36.289Z,8.05
2022-09-24T01:39:04.325Z,7.75
2022-09-24T01:41:30.872Z,8.13
2022-09-24T01:43:58.381Z,6.95
2022-09-24T01:46:25.004Z,8.15
2022-09-24T01:48:51.339Z,7.55
2022-09-24T01:51:20.225Z,7.78
2022-09-24T01:53:50.843Z,8.70
2022-09-24T01:56:20.632Z,7.53
2022-09-24T01:59:09.853Z,7.90
2022-09-24T02:01:40.309Z,7.38
2022-09-24T02:04:11.813Z,8.30
2022-09-24T02:06:40.097Z,8.52
2022-09-24T02:09:06.958Z,8.93
2022-09-24T02:11:35.764Z,8.20
2022-09-24T02:14:05.083Z,9.75
2022-09-24T02:16:36.749Z,9.45
2022-09-24T02:19:05.571Z,9.57
2022-09-24T02:21:32.633Z,9.80
2022-09-24T02:24:05.533Z,10.65
2022-09-24T02:26:31.740Z,9.57
2022-09-24T02:28:59.104Z,10.88
2022-09-24T02:31:28.664Z,10.05
2022-09-24T02:34:14.521Z,9.48
2022-09-24T02:36:41.731Z,10.65
2022-09-24T02:39:07.933Z,11.63
2022-09-24T02:41:34.679Z,11.40
2022-09-24T02:44:01.047Z,10.73
2022-09-24T02:46:27.347Z,10.32
2022-09-24T02:48:53.642Z,10.10
2022-09-24T02:51:20.008Z,10.57
2022-09-24T02:53:48.341Z,10.70
2022-09-24T02:56:14.563Z,10.68
2022-09-24T02:58:40.914Z,11.63
2022-09-24T03:01:07.138Z,12.70
2022-09-24T03:03:33.581Z,12.38
2022-09-24T03:05:59.901Z,12.18
2022-09-24T03:08:27.009Z,11.63
2022-09-24T03:10:54.018Z,10.65
2022-09-24T03:13:20.431Z,9.60
2022-09-24T03:15:46.733Z,11.82
2022-09-24T03:18:13.557Z,11.63
2022-09-24T03:20:40.005Z,10.35
2022-09-24T03:23:06.333Z,11.00
2022-09-24T03:25:32.507Z,10.75
2022-09-24T03:27:58.706Z,11.40
2022-09-24T03:30:43.551Z,11.77
2022-09-24T03:33:09.769Z,11.35
2022-09-24T03:35:35.977Z,12.10
2022-09-24T03:38:02.184Z,11.98
2022-09-24T03:40:28.416Z,12.60
2022-09-24T03:42:54.706Z,12.73
2022-09-24T03:45:20.999Z,12.23
2022-09-24T03:47:47.259Z,12.45
2022-09-24T03:50:13.423Z,12.63
2022-09-24T03:52:39.714Z,13.27
2022-09-24T03:55:06.270Z,12.20
2022-09-24T03:57:32.502Z,11.85
2022-09-24T03:59:59.279Z,13.05
2022-09-24T04:02:25.562Z,12.80
2022-09-24T04:04:52.071Z,12.93
2022-09-24T04:07:18.528Z,12.15
2022-09-24T04:09:44.695Z,12.38
2022-09-24T04:12:10.962Z,11.75
2022-09-24T04:14:37.275Z,12.02
2022-09-24T04:17:03.664Z,13.07
2022-09-24T04:19:32.032Z,12.27
2022-09-24T04:21:58.251Z,10.50
2022-09-24T04:24:24.497Z,11.77
2022-09-24T04:26:50.691Z,12.93
2022-09-24T04:29:16.899Z,11.85
2022-09-24T04:31:43.095Z,12.25
2022-09-24T04:34:10.025Z,12.88
2022-09-24T04:36:36.221Z,12.38
2022-09-24T04:39:03.316Z,13.38
2022-09-24T04:41:29.578Z,12.18
2022-09-24T04:43:56.981Z,13.68
2022-09-24T04:46:23.216Z,13.52
2022-09-24T04:48:49.858Z,14.48
2022-09-24T04:51:19.274Z,13.70
2022-09-24T04:53:47.736Z,12.32
2022-09-24T04:56:14.316Z,12.73
2022-09-24T04:58:40.626Z,13.63
2022-09-24T05:01:06.991Z,13.43
2022-09-24T05:03:33.320Z,12.20
2022-09-24T05:05:59.776Z,13.02
2022-09-24T05:08:25.966Z,11.77
2022-09-24T05:10:54.015Z,11.70
2022-09-24T05:13:21.452Z,13.35
2022-09-24T05:15:47.690Z,12.30
2022-09-24T05:18:13.901Z,12.05
2022-09-24T05:20:40.083Z,11.40
2022-09-24T05:23:07.033Z,11.27
2022-09-24T05:25:33.244Z,11.20
2022-09-24T05:27:59.530Z,11.57
2022-09-24T05:30:26.053Z,10.57
2022-09-24T05:32:52.797Z,9.57
2022-09-24T05:35:20.259Z,10.70
2022-09-24T05:37:48.932Z,11.60
2022-09-24T05:40:33.755Z,10.00
2022-09-24T05:43:01.540Z,9.80
2022-09-24T05:45:28.531Z,10.23
2022-09-24T05:47:54.771Z,9.75
2022-09-24T05:50:21.347Z,9.57
2022-09-24T05:52:47.504Z,9.45
2022-09-24T05:55:13.715Z,9.45
2022-09-24T05:57:39.906Z,8.90
2022-09-24T06:00:06.754Z,9.68
2022-09-24T06:02:33.190Z,10.70
2022-09-24T06:04:59.427Z,9.93
2022-09-24T06:07:25.613Z,10.27
2022-09-24T06:09:52.070Z,10.70
2022-09-24T06:12:18.288Z,11.70
2022-09-24T06:14:44.490Z,11.40
2022-09-24T06:17:10.876Z,12.50
2022-09-24T06:19:37.354Z,11.80
2022-09-24T06:22:03.539Z,10.68
2022-09-24T06:24:29.727Z,11.75
2022-09-24T06:26:55.905Z,11.38
2022-09-24T06:29:22.099Z,10.07
2022-09-24T06:31:48.346Z,10.13
2022-09-24T06:34:15.429Z,9.70
2022-09-24T06:36:42.157Z,9.50
2022-09-24T06:39:08.383Z,8.40
2022-09-24T06:41:34.579Z,8.20
2022-09-24T06:44:00.905Z,7.50
2022-09-24T06:46:27.214Z,7.93
2022-09-24T06:48:56.482Z,7.38
2022-09-24T06:51:22.685Z,7.05
2022-09-24T06:53:52.519Z,7.60
2022-09-24T06:56:18.731Z,8.30
2022-09-24T06:58:44.961Z,8.80
2022-09-24T07:01:11.284Z,10.75
2022-09-24T07:03:39.057Z,9.77
2022-09-24T07:06:05.789Z,10.40
2022-09-24T07:08:32.450Z,10.93
2022-09-24T07:10:58.906Z,10.63
2022-09-24T07:13:25.166Z,10.27
2022-09-24T07:15:52.238Z,10.30
2022-09-24T07:18:19.061Z,9.98
2022-09-24T07:20:45.441Z,8.48
2022-09-24T07:23:11.901Z,7.82
2022-09-24T07:25:38.594Z,8.02
2022-09-24T07:28:09.807Z,7.32
2022-09-24T07:30:36.395Z,7.60
2022-09-24T07:33:02.714Z,8.20
2022-09-24T07:35:29.302Z,9.07
2022-09-24T07:38:02.769Z,8.20
2022-09-24T07:40:29.432Z,8.63
2022-09-24T07:42:55.876Z,8.25
2022-09-24T07:45:22.864Z,8.18
2022-09-24T07:47:56.603Z,8.18
2022-09-24T07:50:22.895Z,8.00
2022-09-24T07:52:52.224Z,7.90
2022-09-24T07:55:18.944Z,9.00
2022-09-24T07:57:48.928Z,9.85
2022-09-24T08:00:15.582Z,10.00
2022-09-24T08:02:41.796Z,9.23
2022-09-24T08:05:08.286Z,9.63
2022-09-24T08:07:34.521Z,9.50
2022-09-24T08:10:01.436Z,9.70
2022-09-24T08:12:27.799Z,9.70
2022-09-24T08:14:54.036Z,10.27
2022-09-24T08:17:20.263Z,10.18
2022-09-24T08:19:46.909Z,11.05
2022-09-24T08:22:14.182Z,12.20
2022-09-24T08:24:41.781Z,12.32
2022-09-24T08:27:16.457Z,12.48
2022-09-24T08:29:43.488Z,12.32
2022-09-24T08:32:09.731Z,12.55
2022-09-24T08:34:38.409Z,13.27
2022-09-24T08:37:05.855Z,14.10
2022-09-24T08:39:33.009Z,12.80
2022-09-24T08:42:04.422Z,11.82
2022-09-24T08:44:59.300Z,11.13
2022-09-24T08:47:45.637Z,13.30
2022-09-24T08:50:14.034Z,12.35
2022-09-24T08:52:48.915Z,12.63
2022-09-24T08:57:49.485Z,13.07
2022-09-24T09:00:16.333Z,13.45
2022-09-24T09:02:45.861Z,13.82
2022-09-24T09:05:27.649Z,13.60
2022-09-24T09:08:33.840Z,13.27
2022-09-24T09:11:02.889Z,12.63
2022-09-24T09:13:34.630Z,13.40
2022-09-24T09:16:14.519Z,13.30
2022-09-24T09:18:41.854Z,12.73
2022-09-24T09:21:10.865Z,12.73
2022-09-24T09:23:44.358Z,11.55
2022-09-24T09:26:11.476Z,12.25
2022-09-24T09:28:37.922Z,13.35
2022-09-24T09:31:06.777Z,12.38
2022-09-24T09:33:48.352Z,12.80
2022-09-24T09:36:14.531Z,13.77
2022-09-24T09:38:45.834Z,13.95
2022-09-24T09:41:19.499Z,17.35
2022-09-24T09:43:45.990Z,16.20
2022-09-24T09:46:21.337Z,14.98
2022-09-24T09:48:50.060Z,16.67
2022-09-24T09:51:22.348Z,16.20
2022-09-24T09:53:59.550Z,17.55
2022-09-24T09:56:30.436Z,17.27
2022-09-24T09:59:17.890Z,16.10
2022-09-24T10:01:46.630Z,16.52
2022-09-24T10:04:32.020Z,18.38
2022-09-24T10:07:11.692Z,17.77
2022-09-24T10:09:39.107Z,17.90
2022-09-24T10:12:16.685Z,16.55
2022-09-24T10:14:43.422Z,17.00
2022-09-24T10:17:13.149Z,15.48
2022-09-24T10:19:39.867Z,17.00
2022-09-24T10:22:15.005Z,15.88
2022-09-24T10:24:42.902Z,15.45
2022-09-24T10:27:22.321Z,16.13
2022-09-24T10:30:11.349Z,15.82
2022-09-24T10:32:38.497Z,14.50
2022-09-24T10:35:18.859Z,15.43
2022-09-24T10:37:55.464Z,15.38
2022-09-24T10:40:25.498Z,14.23
2022-09-24T10:42:55.410Z,15.07
2022-09-24T10:45:22.115Z,13.57
2022-09-24T10:48:08.024Z,13.43
2022-09-24T10:50:34.357Z,14.25
2022-09-24T10:53:03.330Z,14.65
2022-09-24T10:55:32.296Z,13.25
2022-09-24T10:58:17.470Z,13.27
2022-09-24T11:00:59.058Z,13.48
2022-09-24T11:03:25.219Z,12.00
2022-09-24T11:05:53.259Z,10.88
2022-09-24T11:08:39.768Z,10.93
2022-09-24T11:11:05.953Z,10.50
2022-09-24T11:13:41.010Z,12.20
2022-09-24T11:16:15.102Z,12.80
2022-09-24T11:19:00.224Z,13.02
2022-09-24T11:21:29.498Z,15.80
2022-09-24T11:23:58.499Z,15.88
2022-09-24T11:26:24.676Z,15.27
2022-09-24T11:29:05.849Z,15.75
2022-09-24T11:31:32.100Z,15.75
2022-09-24T11:34:17.386Z,15.88
2022-09-24T11:39:18.565Z,14.88
2022-09-24T11:41:50.445Z,14.90
2022-09-24T11:44:22.756Z,13.23
2022-09-24T11:46:59.654Z,12.80
2022-09-24T11:49:35.175Z,12.43
2022-09-24T11:52:14.978Z,12.60
2022-09-24T11:54:50.369Z,12.48
2022-09-24T11:57:21.795Z,12.77
2022-09-24T11:59:53.760Z,12.77
2022-09-24T12:02:25.934Z,12.02
2022-09-24T12:05:01.210Z,12.05
2022-09-24T12:07:30.967Z,12.55
2022-09-24T12:10:00.041Z,13.40
2022-09-24T12:12:32.093Z,13.10
2022-09-24T12:15:01.614Z,13.13
2022-09-24T12:17:33.202Z,12.73
2022-09-24T12:20:01.484Z,13.27
2022-09-24T12:22:28.643Z,13.10
2022-09-24T12:25:00.195Z,13.55
2022-09-24T12:27:34.145Z,13.82
2022-09-24T12:30:36.886Z,13.50
2022-09-24T12:33:14.815Z,14.63
2022-09-24T12:35:59.054Z,13.35
2022-09-24T12:38:25.692Z,12.27
2022-09-24T12:41:10.794Z,14.05
2022-09-24T12:43:39.796Z,13.75
2022-09-24T12:46:08.713Z,12.82
2022-09-24T12:48:37.497Z,13.68
2022-09-24T12:51:06.068Z,13.20
2022-09-24T12:53:34.643Z,11.82
2022-09-24T12:56:02.521Z,12.30
2022-09-24T12:58:28.699Z,12.50
2022-09-24T13:01:15.393Z,12.52
2022-09-24T13:03:46.666Z,10.40
2022-09-24T13:06:22.631Z,11.40
2022-09-24T13:08:50.298Z,11.18
2022-09-24T13:11:25.699Z,10.48
2022-09-24T13:14:27.046Z,9.68
2022-09-24T13:16:55.876Z,9.98
2022-09-24T13:19:25.183Z,10.88
2022-09-24T13:21:58.634Z,10.07
2022-09-24T13:24:47.962Z,10.32
2022-09-24T13:27:37.331Z,12.13
2022-09-24T13:30:16.439Z,11.40
2022-09-24T13:32:54.852Z,11.18
2022-09-24T13:35:24.242Z,11.63
2022-09-24T13:38:03.169Z,11.88
2022-09-24T13:40:33.298Z,10.35
2022-09-24T13:43:14.531Z,10.23
2022-09-24T13:45:42.638Z,9.38
2022-09-24T13:48:28.463Z,9.30
2022-09-24T13:50:55.060Z,8.95
2022-09-24T13:53:40.000Z,9.50
2022-09-24T13:56:11.362Z,9.95
2022-09-24T13:58:38.655Z,9.05
2022-09-24T14:01:12.547Z,9.77
2022-09-24T14:03:39.520Z,9.35
2022-09-24T14:06:10.317Z,8.35
2022-09-24T14:08:38.705Z,8.45
2022-09-24T14:11:08.812Z,8.90
2022-09-24T14:13:38.340Z,8.13
2022-09-24T14:16:09.055Z,9.30
2022-09-24T14:18:37.006Z,9.40
2022-09-24T14:21:22.091Z,9.57
2022-09-24T14:23:57.151Z,8.98
2022-09-24T14:26:31.721Z,8.13
2022-09-24T14:28:59.498Z,8.75
2022-09-24T14:31:25.793Z,7.50
2022-09-24T14:33:52.529Z,9.25
2022-09-24T14:36:19.066Z,7.72
2022-09-24T14:38:54.121Z,8.85
2022-09-24T14:41:22.825Z,9.82
2022-09-24T14:43:48.987Z,9.90
2022-09-24T14:46:18.481Z,10.18
2022-09-24T14:48:44.700Z,9.80
2022-09-24T14:51:27.643Z,9.32
2022-09-24T14:53:58.002Z,9.80
2022-09-24T14:56:29.068Z,10.35
2022-09-24T14:58:55.548Z,9.68
2022-09-24T15:01:23.741Z,10.15
2022-09-24T15:03:54.626Z,10.80
2022-09-24T15:06:28.166Z,9.73
2022-09-24T15:08:57.876Z,9.82
2022-09-24T15:11:27.679Z,10.40
2022-09-24T15:14:13.336Z,10.77
2022-09-24T15:16:39.654Z,10.73
2022-09-24T15:19:19.405Z,11.00
2022-09-24T15:21:52.480Z,10.88
2022-09-24T15:24:20.096Z,9.88
2022-09-24T15:26:47.833Z,10.68
2022-09-24T15:29:18.321Z,10.80
2022-09-24T15:31:44.655Z,11.32
2022-09-24T15:34:10.977Z,11.98
2022-09-24T15:36:37.828Z,12.63
2022-09-24T15:39:04.383Z,13.32
2022-09-24T15:41:30.972Z,13.07
2022-09-24T15:43:58.251Z,13.20
2022-09-24T15:46:25.335Z,13.35
2022-09-24T15:48:51.663Z,15.07
2022-09-24T15:51:19.670Z,14.15
2022-09-24T15:53:46.111Z,15.32
2022-09-24T15:56:12.349Z,13.68
2022-09-24T15:58:38.694Z,13.73
2022-09-24T16:01:04.977Z,14.52
2022-09-24T16:03:32.284Z,14.35
2022-09-24T16:05:59.355Z,14.30
2022-09-24T16:08:26.075Z,14.10
2022-09-24T16:10:52.827Z,13.90
2022-09-24T16:13:20.010Z,13.90
2022-09-24T16:15:46.301Z,14.35
2022-09-24T16:18:13.457Z,14.90
2022-09-24T16:20:39.979Z,15.68
2022-09-24T16:23:06.811Z,15.60
2022-09-24T16:25:33.502Z,15.55
2022-09-24T16:27:59.767Z,16.85
2022-09-24T16:30:25.965Z,15.65
2022-09-24T16:32:52.419Z,16.05
2022-09-24T16:35:18.714Z,15.13
2022-09-24T16:37:44.905Z,15.48
2022-09-24T16:40:11.950Z,15.38
2022-09-24T16:42:38.218Z,13.98
2022-09-24T16:45:04.727Z,15.57
2022-09-24T16:47:30.912Z,15.50
2022-09-24T16:49:57.093Z,14.98
2022-09-24T16:52:23.350Z,15.75
2022-09-24T16:54:49.666Z,15.10
2022-09-24T16:57:15.878Z,13.77
2022-09-24T16:59:42.108Z,16.25
2022-09-24T17:02:11.196Z,20.85
2022-09-24T17:04:37.541Z,18.33
2022-09-24T17:07:03.958Z,17.10
2022-09-24T17:09:48.796Z,13.98
2022-09-24T17:12:14.995Z,17.33
2022-09-24T17:14:41.271Z,21.25
2022-09-24T17:17:07.479Z,15.05
2022-09-24T17:19:33.677Z,14.98
2022-09-24T17:22:00.002Z,14.88
2022-09-24T17:24:26.374Z,13.80
2022-09-24T17:26:54.063Z,18.67
2022-09-24T17:29:20.496Z,16.08
2022-09-24T17:31:46.734Z,13.50
2022-09-24T17:34:14.981Z,15.25
2022-09-24T17:36:41.585Z,13.75
2022-09-24T17:39:08.388Z,15.35
2022-09-24T17:41:34.781Z,14.07
2022-09-24T17:44:01.473Z,15.25
2022-09-24T17:46:28.786Z,16.27
2022-09-24T17:48:56.535Z,15.07
2022-09-24T17:51:23.850Z,15.60
2022-09-24T17:53:51.847Z,14.65
2022-09-24T17:56:18.110Z,15.27
2022-09-24T17:58:46.773Z,15.05
2022-09-24T18:01:15.241Z,15.90
2022-09-24T18:03:41.678Z,16.10
2022-09-24T18:06:09.136Z,16.00
2022-09-24T18:08:42.011Z,16.35
2022-09-24T18:11:09.655Z,14.63
2022-09-24T18:13:35.845Z,16.92
2022-09-24T18:16:05.914Z,15.52
2022-09-24T18:18:32.299Z,15.57
2022-09-24T18:20:59.745Z,16.42
2022-09-24T18:23:25.992Z,17.08
2022-09-24T18:25:52.243Z,17.55
2022-09-24T18:28:18.949Z,17.60
2022-09-24T18:30:45.237Z,17.38
2022-09-24T18:33:11.447Z,18.77
2022-09-24T18:35:37.696Z,17.95
2022-09-24T18:38:03.913Z,18.92
2022-09-24T18:40:30.847Z,19.25
2022-09-24T18:42:58.037Z,18.50
2022-09-24T18:45:25.089Z,22.23
2022-09-24T18:47:52.502Z,21.45
2022-09-24T18:50:18.698Z,21.25
2022-09-24T18:52:45.133Z,20.55
2022-09-24T18:55:11.555Z,19.27
2022-09-24T18:57:38.266Z,20.55
2022-09-24T19:00:04.696Z,20.90
2022-09-24T19:02:31.293Z,19.48
2022-09-24T19:04:57.562Z,21.58
2022-09-24T19:07:23.786Z,18.13
2022-09-24T19:09:50.104Z,17.58
2022-09-24T19:12:16.327Z,19.08
2022-09-24T19:14:42.606Z,20.25
2022-09-24T19:17:08.819Z,20.35
2022-09-24T19:19:35.025Z,19.13
2022-09-24T19:22:01.268Z,19.98
2022-09-24T19:24:27.547Z,20.33
2022-09-24T19:26:53.756Z,19.70
2022-09-24T19:29:19.982Z,19.45
2022-09-24T19:31:48.600Z,21.00
2022-09-24T19:34:14.823Z,20.65
2022-09-24T19:36:44.833Z,20.08
2022-09-24T19:39:12.328Z,21.90
2022-09-24T19:41:39.185Z,22.63
2022-09-24T19:44:08.819Z,28.63
2022-09-24T19:46:35.931Z,22.05
2022-09-24T19:49:02.237Z,22.05
2022-09-24T19:51:29.985Z,27.67
2022-09-24T19:53:57.476Z,21.15
2022-09-24T19:56:25.243Z,20.15
2022-09-24T19:58:53.861Z,18.70
2022-09-24T20:01:20.948Z,19.38
2022-09-24T20:03:47.527Z,18.13
2022-09-24T20:06:15.144Z,18.13
2022-09-24T20:08:41.993Z,18.77
2022-09-24T20:11:09.889Z,18.48
2022-09-24T20:13:36.341Z,17.65
2022-09-24T20:16:03.790Z,18.10
2022-09-24T20:18:31.136Z,18.13
2022-09-24T20:21:04.976Z,17.25
2022-09-24T20:23:31.608Z,16.23
2022-09-24T20:26:16.676Z,16.52
2022-09-24T20:28:43.097Z,15.18
2022-09-24T20:31:10.013Z,15.73
2022-09-24T20:33:36.505Z,16.50
2022-09-24T20:36:03.399Z,16.98
2022-09-24T20:38:29.763Z,16.55
2022-09-24T20:40:56.931Z,17.02
2022-09-24T20:43:23.579Z,18.23
2022-09-24T20:45:50.170Z,18.40
2022-09-24T20:48:16.617Z,19.10
2022-09-24T20:50:42.848Z,18.35
2022-09-24T20:53:09.142Z,19.00
2022-09-24T20:55:35.831Z,18.02
2022-09-24T20:58:02.176Z,19.02
2022-09-24T21:00:35.368Z,19.85
2022-09-24T21:03:15.410Z,18.98
2022-09-24T21:05:50.340Z,21.13
2022-09-24T21:08:16.972Z,20.00
2022-09-24T21:10:43.284Z,21.00
2022-09-24T21:13:09.738Z,22.95
2022-09-24T21:15:36.391Z,23.48
2022-09-24T21:18:21.741Z,25.05
2022-09-24T21:20:49.222Z,24.90
2022-09-24T21:23:15.424Z,25.52
2022-09-24T21:25:54.089Z,26.27
2022-09-24T21:28:21.051Z,28.20
2022-09-24T21:30:57.841Z,28.10
2022-09-24T21:33:24.159Z,28.02
2022-09-24T21:35:50.380Z,26.13
2022-09-24T21:38:19.619Z,24.45
2022-09-24T21:40:51.129Z,24.73
2022-09-24T21:43:17.375Z,23.42
2022-09-24T21:45:43.847Z,22.98
2022-09-24T21:48:10.160Z,24.75
2022-09-24T21:50:40.182Z,24.77
2022-09-24T21:53:08.485Z,24.40
2022-09-24T21:55:35.819Z,25.13
2022-09-24T21:58:02.120Z,25.00
2022-09-24T22:00:28.363Z,24.17
2022-09-24T22:02:54.598Z,24.00
2022-09-24T22:05:20.958Z,23.95
2022-09-24T22:07:47.198Z,21.98
2022-09-24T22:10:13.968Z,22.75
2022-09-24T22:12:40.174Z,20.55
2022-09-24T22:15:06.746Z,18.08
2022-09-24T22:17:33.386Z,18.90
2022-09-24T22:19:59.544Z,17.60
2022-09-24T22:22:25.736Z,18.08
2022-09-24T22:24:51.920Z,15.90
2022-09-24T22:27:18.154Z,16.98
2022-09-24T22:29:45.235Z,16.70
2022-09-24T22:32:11.424Z,19.33
2022-09-24T22:34:56.013Z,18.33
2022-09-24T22:37:22.776Z,20.17
2022-09-24T22:39:48.964Z,20.25
2022-09-24T22:42:15.168Z,19.92
2022-09-24T22:44:41.438Z,19.20
2022-09-24T22:47:07.602Z,19.45
2022-09-24T22:49:33.843Z,20.13
2022-09-24T22:52:00.256Z,19.63
2022-09-24T22:54:26.486Z,19.48
2022-09-24T22:56:52.680Z,21.23
2022-09-24T22:59:18.902Z,19.88
2022-09-24T23:01:45.194Z,20.63
2022-09-24T23:04:14.676Z,22.08
2022-09-24T23:06:41.593Z,21.30
2022-09-24T23:09:09.635Z,21.40
2022-09-24T23:11:36.161Z,21.73
2022-09-24T23:14:04.633Z,22.95
2022-09-24T23:16:32.716Z,20.85
2022-09-24T23:18:59.863Z,23.48
2022-09-24T23:21:27.358Z,23.17
2022-09-24T23:23:54.518Z,21.90
2022-09-24T23:26:21.354Z,22.60
2022-09-24T23:28:53.496Z,24.35
2022-09-24T23:31:21.945Z,22.48
2022-09-24T23:33:48.545Z,23.25
2022-09-24T23:36:15.029Z,23.33
2022-09-24T23:38:41.542Z,22.77
2022-09-24T23:41:08.960Z,25.17
2022-09-24T23:43:35.870Z,24.38
2022-09-24T23:46:02.369Z,25.13
2022-09-24T23:48:29.034Z,24.90
2022-09-24T23:50:55.277Z,24.70
2022-09-24T23:53:21.856Z,26.00
2022-09-24T23:55:49.043Z,26.90
2022-09-24T23:58:16.121Z,25.38
